Time;durP1;ratioP1;P1;durP2;ratioP2;P2;SDS_P1;SDS_P2;PMS_P1;PMS_P2;Temp;Humidity;BMP_temperature;BMP_pressure;BME280_temperature;BME280_humidity;BME280_pressure;Samples;Min_cycle;Max_cycle;Signal;HPM_P1;HPM_P2
2022/09/22 00:01:08;;;;;;;7.75;3.47;;;10.00;99.90;;;;;;5074293;28;20072;-60
2022/09/22 00:03:36;;;;;;;8.70;4.20;;;10.50;99.90;;;;;;5072977;28;20123;-60
2022/09/22 00:06:07;;;;;;;5.97;3.72;;;9.90;99.90;;;;;;5073918;28;20044;-60
2022/09/22 00:08:35;;;;;;;10.85;3.83;;;9.80;99.90;;;;;;5074179;28;20036;-60
2022/09/22 00:11:27;;;;;;;7.35;3.38;;;9.90;99.90;;;;;;5073768;28;20132;-60
2022/09/22 00:13:58;;;;;;;11.27;3.20;;;9.90;99.90;;;;;;5074327;28;20080;-60
2022/09/22 00:16:40;;;;;;;13.85;3.55;;;10.50;99.90;;;;;;5074032;28;20405;-60
2022/09/22 00:19:08;;;;;;;13.77;2.58;;;9.90;99.90;;;;;;5074042;28;20269;-60
2022/09/22 00:21:34;;;;;;;10.32;2.40;;;10.40;99.90;;;;;;5072789;28;20041;-60
2022/09/22 00:24:01;;;;;;;11.90;2.70;;;10.30;99.90;;;;;;5074122;28;20085;-60
2022/09/22 00:26:28;;;;;;;3.83;2.70;;;10.40;99.90;;;;;;5073858;28;20055;-60
2022/09/22 00:28:53;;;;;;;6.40;2.88;;;9.70;99.90;;;;;;5073770;28;20493;-60
2022/09/22 00:31:22;;;;;;;5.85;3.33;;;10.30;99.90;;;;;;5073496;28;20051;-60
2022/09/22 00:33:49;;;;;;;11.18;3.67;;;9.80;99.90;;;;;;5074046;28;20594;-60
2022/09/22 00:36:16;;;;;;;9.85;4.15;;;9.80;99.90;;;;;;5073987;28;20037;-60
2022/09/22 00:38:43;;;;;;;7.80;4.72;;;10.10;99.90;;;;;;5073672;28;20448;-60
2022/09/22 00:41:35;;;;;;;18.10;4.75;;;9.80;99.90;;;;;;5073552;28;20048;-61
2022/09/22 00:44:25;;;;;;;10.75;4.57;;;9.80;99.90;;;;;;5073584;28;20541;-60
2022/09/22 00:47:24;;;;;;;10.55;3.97;;;9.80;99.90;;;;;;5064705;28;20183;-61
2022/09/22 00:49:59;;;;;;;15.60;4.45;;;9.80;99.90;;;;;;5053403;28;20486;-60
2022/09/22 00:52:32;;;;;;;12.82;4.13;;;9.70;99.90;;;;;;5053514;28;20544;-60
2022/09/22 00:55:01;;;;;;;9.98;4.75;;;9.70;99.90;;;;;;5053609;28;20110;-60
2022/09/22 00:57:31;;;;;;;13.18;4.55;;;10.20;99.90;;;;;;5053689;28;20033;-60
2022/09/22 00:59:57;;;;;;;8.60;4.85;;;9.80;99.90;;;;;;5053186;28;20029;-61
2022/09/22 01:02:23;;;;;;;14.15;3.95;;;10.20;99.90;;;;;;5071519;28;20052;-60
2022/09/22 01:04:50;;;;;;;8.57;4.40;;;10.40;99.90;;;;;;5073236;28;20041;-61
2022/09/22 01:07:19;;;;;;;9.52;4.18;;;10.40;99.90;;;;;;5073394;28;20051;-60
2022/09/22 01:09:44;;;;;;;6.60;4.05;;;10.40;99.90;;;;;;5072729;28;20365;-61
2022/09/22 01:12:11;;;;;;;16.00;4.47;;;9.90;99.90;;;;;;5073427;28;20045;-60
2022/09/22 01:14:52;;;;;;;12.98;4.60;;;10.40;99.90;;;;;;5073279;28;20406;-60
2022/09/22 01:17:32;;;;;;;7.40;4.68;;;10.40;99.90;;;;;;5072797;28;20033;-61
2022/09/22 01:20:22;;;;;;;8.55;4.60;;;9.80;99.90;;;;;;5073090;28;20518;-61
2022/09/22 01:23:06;;;;;;;8.40;4.57;;;9.90;99.90;;;;;;5072992;28;20628;-60
2022/09/22 01:25:50;;;;;;;8.88;4.13;;;9.80;99.90;;;;;;5072729;28;20037;-60
2022/09/22 01:29:07;;;;;;;9.05;5.07;;;10.20;99.90;;;;;;5071727;28;20037;-60
2022/09/22 01:32:00;;;;;;;13.00;5.18;;;10.40;99.90;;;;;;5063787;28;20119;-61
2022/09/22 01:34:30;;;;;;;13.93;4.65;;;10.30;99.90;;;;;;5053217;28;20053;-61
2022/09/22 01:37:22;;;;;;;10.90;4.82;;;10.00;99.90;;;;;;5052871;28;20461;-60
2022/09/22 01:39:53;;;;;;;49.28;5.07;;;9.70;99.90;;;;;;5052508;28;20055;-60
2022/09/22 01:42:27;;;;;;;13.73;4.72;;;10.30;99.90;;;;;;5052607;28;20410;-60
2022/09/22 01:45:16;;;;;;;43.08;5.53;;;10.20;99.90;;;;;;5052497;28;20127;-61
2022/09/22 01:48:08;;;;;;;85.38;5.82;;;9.60;99.90;;;;;;5052161;28;20073;-61
2022/09/22 01:50:52;;;;;;;13.20;4.68;;;9.60;99.90;;;;;;5049668;28;20123;-60
2022/09/22 01:53:21;;;;;;;6.55;4.40;;;10.10;99.90;;;;;;5052585;28;20061;-61
2022/09/22 01:55:52;;;;;;;11.02;4.55;;;9.70;99.90;;;;;;5067961;28;20075;-61
2022/09/22 01:58:24;;;;;;;7.13;4.20;;;9.50;99.90;;;;;;5072324;28;20040;-61
2022/09/22 02:00:59;;;;;;;12.98;4.65;;;9.70;99.90;;;;;;5071785;28;20128;-61
2022/09/22 02:03:49;;;;;;;10.13;4.60;;;10.00;99.90;;;;;;5072068;28;20403;-60
2022/09/22 02:06:22;;;;;;;6.43;4.45;;;10.00;99.90;;;;;;5072309;28;20044;-60
2022/09/22 02:08:57;;;;;;;11.13;4.65;;;9.60;99.90;;;;;;5072081;28;20044;-60
2022/09/22 02:11:23;;;;;;;13.02;4.55;;;9.40;99.90;;;;;;5071602;28;20364;-60
2022/09/22 02:13:48;;;;;;;10.38;4.60;;;10.00;99.90;;;;;;5071875;28;20425;-60
2022/09/22 02:16:17;;;;;;;22.15;4.95;;;9.40;99.90;;;;;;5072116;28;20387;-60
2022/09/22 02:19:07;;;;;;;11.85;5.15;;;10.00;99.90;;;;;;5071798;28;20495;-60
2022/09/22 02:21:33;;;;;;;6.50;4.55;;;10.00;99.90;;;;;;5071572;28;20040;-60
2022/09/22 02:23:59;;;;;;;11.50;4.30;;;9.90;99.90;;;;;;5071823;28;20494;-60
2022/09/22 02:26:28;;;;;;;13.35;4.78;;;9.80;99.90;;;;;;5070464;28;20044;-60
2022/09/22 02:29:01;;;;;;;6.93;5.15;;;10.00;99.90;;;;;;5071923;28;20507;-60
2022/09/22 02:31:30;;;;;;;9.90;5.00;;;9.60;99.90;;;;;;5071517;28;20069;-60
2022/09/22 02:33:56;;;;;;;8.23;5.05;;;9.40;99.90;;;;;;5071961;28;20425;-60
2022/09/22 02:36:52;;;;;;;11.75;4.75;;;9.90;99.90;;;;;;5070284;28;20055;-59
2022/09/22 02:39:41;;;;;;;9.57;4.38;;;10.10;99.90;;;;;;5071688;28;20036;-60
2022/09/22 02:42:19;;;;;;;7.10;4.65;;;9.90;99.90;;;;;;5070235;28;20441;-60
2022/09/22 02:44:54;;;;;;;8.77;4.70;;;9.40;99.90;;;;;;5071388;28;20040;-60
2022/09/22 02:47:44;;;;;;;8.50;4.47;;;10.10;99.90;;;;;;5058736;28;20049;-60
2022/09/22 02:50:12;;;;;;;12.20;5.00;;;9.60;99.90;;;;;;5049798;28;20075;-60
2022/09/22 02:52:39;;;;;;;15.00;3.90;;;9.70;99.90;;;;;;5051505;28;20160;-60
2022/09/22 02:55:06;;;;;;;13.63;4.25;;;9.40;99.90;;;;;;5049863;28;20040;-60
2022/09/22 02:57:32;;;;;;;5.45;3.17;;;10.00;99.90;;;;;;5050003;28;20445;-60
2022/09/22 02:59:58;;;;;;;8.50;4.57;;;9.90;99.90;;;;;;5050876;28;20041;-60
2022/09/22 03:02:23;;;;;;;7.22;4.80;;;10.00;99.90;;;;;;5051148;28;20041;-60
2022/09/22 03:04:50;;;;;;;6.43;4.47;;;9.60;99.90;;;;;;5051405;28;20076;-60
2022/09/22 03:07:16;;;;;;;8.10;4.80;;;9.40;99.90;;;;;;5049774;28;20045;-60
2022/09/22 03:09:42;;;;;;;5.70;4.18;;;9.60;99.90;;;;;;5050593;28;20033;-60
2022/09/22 03:12:08;;;;;;;8.65;5.05;;;10.00;99.90;;;;;;5051087;28;20045;-60
2022/09/22 03:14:33;;;;;;;7.20;4.30;;;9.40;99.90;;;;;;5049659;28;20059;-60
2022/09/22 03:16:59;;;;;;;7.80;4.47;;;10.00;99.90;;;;;;5061370;28;20032;-60
2022/09/22 03:19:24;;;;;;;9.55;4.57;;;9.90;99.90;;;;;;5071168;28;20085;-60
2022/09/22 03:21:50;;;;;;;9.77;4.38;;;9.80;99.90;;;;;;5071164;28;20120;-60
2022/09/22 03:24:16;;;;;;;8.65;4.25;;;9.90;99.90;;;;;;5070929;28;20044;-60
2022/09/22 03:26:41;;;;;;;13.32;4.75;;;9.40;99.90;;;;;;5070924;28;20032;-60
2022/09/22 03:29:07;;;;;;;10.25;4.85;;;9.20;99.90;;;;;;5069689;28;20506;-61
2022/09/22 03:31:32;;;;;;;9.77;4.55;;;9.90;99.90;;;;;;5070895;28;20055;-60
2022/09/22 03:33:58;;;;;;;8.52;4.85;;;9.50;99.90;;;;;;5075105;28;20040;-60
2022/09/22 03:36:24;;;;;;;7.45;4.82;;;9.20;99.90;;;;;;5074938;28;20058;-60
2022/09/22 03:38:50;;;;;;;5.80;4.25;;;9.70;99.90;;;;;;5074830;28;20040;-60
2022/09/22 03:41:16;;;;;;;7.72;4.53;;;9.50;99.90;;;;;;5073324;28;20040;-60
2022/09/22 03:43:42;;;;;;;5.40;4.22;;;9.40;99.90;;;;;;5074695;28;20512;-61
2022/09/22 03:46:08;;;;;;;7.63;4.35;;;9.90;99.90;;;;;;5074542;28;20070;-60
2022/09/22 03:48:33;;;;;;;9.85;4.40;;;9.90;99.90;;;;;;5074801;28;20286;-60
2022/09/22 03:50:59;;;;;;;8.48;3.92;;;9.70;99.90;;;;;;5074669;28;20036;-60
2022/09/22 03:53:25;;;;;;;5.85;3.75;;;9.90;99.90;;;;;;5074569;28;20043;-60
2022/09/22 03:55:51;;;;;;;6.38;4.75;;;9.20;99.90;;;;;;5074187;28;20037;-60
2022/09/22 03:58:19;;;;;;;7.03;4.15;;;9.10;99.90;;;;;;5073182;28;20077;-60
2022/09/22 04:00:44;;;;;;;6.93;3.97;;;9.80;99.90;;;;;;5074154;28;20045;-60
2022/09/22 04:03:12;;;;;;;6.90;4.05;;;9.80;99.90;;;;;;5074282;28;20375;-60
2022/09/22 04:05:38;;;;;;;6.88;3.90;;;9.60;99.90;;;;;;5074363;28;20048;-60
2022/09/22 04:08:03;;;;;;;6.43;4.20;;;9.20;99.90;;;;;;5074482;28;20519;-60
2022/09/22 04:10:29;;;;;;;9.02;4.38;;;9.80;99.90;;;;;;5073715;28;20048;-60
2022/09/22 04:12:54;;;;;;;6.03;4.00;;;9.10;99.90;;;;;;5074250;28;20525;-60
2022/09/22 04:15:20;;;;;;;6.25;4.55;;;9.30;99.90;;;;;;5073901;28;20032;-60
2022/09/22 04:17:46;;;;;;;5.22;3.90;;;9.20;99.90;;;;;;5074355;28;20501;-60
2022/09/22 04:20:12;;;;;;;6.85;4.22;;;9.60;99.90;;;;;;5074203;28;20561;-60
2022/09/22 04:22:38;;;;;;;8.93;4.28;;;9.90;99.90;;;;;;5074009;28;20127;-60
2022/09/22 04:25:05;;;;;;;7.78;4.40;;;9.50;99.90;;;;;;5073920;28;20509;-60
2022/09/22 04:27:30;;;;;;;6.45;4.20;;;9.80;99.90;;;;;;5073722;28;20033;-60
2022/09/22 04:29:56;;;;;;;8.35;3.95;;;9.50;99.90;;;;;;5073518;28;20497;-60
2022/09/22 04:32:22;;;;;;;11.73;4.40;;;9.30;99.90;;;;;;5074136;28;20405;-60
2022/09/22 04:34:48;;;;;;;5.70;3.83;;;9.80;99.90;;;;;;5074250;28;20032;-60
2022/09/22 04:37:13;;;;;;;5.10;3.85;;;9.20;99.90;;;;;;5073881;28;20037;-60
2022/09/22 04:39:39;;;;;;;8.73;3.78;;;9.80;99.90;;;;;;5073548;28;20508;-60
2022/09/22 04:42:05;;;;;;;7.38;3.90;;;9.90;99.90;;;;;;5073764;28;20048;-60
2022/09/22 04:44:30;;;;;;;6.97;3.97;;;9.50;99.90;;;;;;5072939;28;20048;-60
2022/09/22 04:46:56;;;;;;;8.80;3.88;;;9.80;99.90;;;;;;5068982;28;20048;-61
2022/09/22 04:49:22;;;;;;;9.35;4.22;;;9.60;99.90;;;;;;5052152;28;20048;-60
2022/09/22 04:51:48;;;;;;;8.48;4.15;;;9.30;99.90;;;;;;5053571;28;20045;-60
2022/09/22 04:54:14;;;;;;;6.03;3.95;;;9.10;99.90;;;;;;5053543;28;20033;-60
2022/09/22 04:56:40;;;;;;;5.70;3.92;;;9.30;99.90;;;;;;5053344;28;20033;-60
2022/09/22 04:59:06;;;;;;;9.18;4.40;;;9.40;99.90;;;;;;5053250;28;20151;-60
2022/09/22 05:01:32;;;;;;;7.53;4.20;;;9.20;99.90;;;;;;5053014;28;20052;-60
2022/09/22 05:03:57;;;;;;;8.82;4.32;;;9.60;99.90;;;;;;5053458;28;20369;-60
2022/09/22 05:06:23;;;;;;;10.45;4.00;;;9.60;99.90;;;;;;5053374;28;20041;-60
2022/09/22 05:08:48;;;;;;;6.40;4.00;;;9.20;99.90;;;;;;5052779;28;20047;-61
2022/09/22 05:11:14;;;;;;;6.78;4.10;;;9.30;99.90;;;;;;5052301;28;20053;-60
2022/09/22 05:13:40;;;;;;;5.65;3.80;;;9.70;99.90;;;;;;5053103;28;20041;-61
2022/09/22 05:16:07;;;;;;;5.93;4.03;;;9.20;99.90;;;;;;5054337;28;20507;-60
2022/09/22 05:18:33;;;;;;;9.05;3.80;;;9.30;99.90;;;;;;5073241;28;20444;-61
2022/09/22 05:21:00;;;;;;;6.63;4.20;;;9.00;99.90;;;;;;5073062;28;20043;-60
2022/09/22 05:23:25;;;;;;;19.27;4.47;;;9.00;99.90;;;;;;5073021;28;20490;-60
2022/09/22 05:25:51;;;;;;;6.13;4.30;;;9.20;99.90;;;;;;5072843;28;20098;-60
2022/09/22 05:28:16;;;;;;;6.88;3.63;;;9.10;99.90;;;;;;5072828;28;20050;-60
2022/09/22 05:30:42;;;;;;;9.20;4.32;;;9.60;99.90;;;;;;5072690;28;20114;-61
2022/09/22 05:33:07;;;;;;;7.38;4.80;;;9.40;99.90;;;;;;5072926;28;20047;-60
2022/09/22 05:35:33;;;;;;;8.00;4.53;;;9.20;99.90;;;;;;5072337;28;20146;-65
2022/09/22 05:37:58;;;;;;;7.88;4.65;;;9.40;99.90;;;;;;5072633;28;20090;-66
2022/09/22 05:40:25;;;;;;;7.35;4.50;;;9.60;99.90;;;;;;5072302;28;20047;-66
2022/09/22 05:42:52;;;;;;;7.68;4.10;;;9.80;99.90;;;;;;5072485;28;20527;-66
2022/09/22 05:45:19;;;;;;;6.20;4.38;;;9.80;99.90;;;;;;5070952;28;20102;-66
2022/09/22 05:47:45;;;;;;;7.38;4.50;;;9.20;99.90;;;;;;5057395;28;20047;-66
2022/09/22 05:50:13;;;;;;;8.70;4.88;;;9.60;99.90;;;;;;5051095;28;20418;-62
2022/09/22 05:52:38;;;;;;;10.30;4.90;;;9.40;99.90;;;;;;5052327;28;20037;-62
2022/09/22 05:55:06;;;;;;;9.23;4.32;;;9.20;99.90;;;;;;5061012;28;20123;-66
2022/09/22 05:57:32;;;;;;;8.73;4.28;;;9.70;99.90;;;;;;5070891;28;20051;-66
2022/09/22 05:59:58;;;;;;;10.00;5.28;;;9.70;99.90;;;;;;5071880;28;20072;-66
2022/09/22 06:02:24;;;;;;;7.75;4.22;;;9.00;99.90;;;;;;5054264;28;20079;-67
2022/09/22 06:04:50;;;;;;;8.45;5.18;;;9.40;99.90;;;;;;5070845;28;20425;-66
2022/09/22 06:07:16;;;;;;;8.82;5.03;;;9.70;99.90;;;;;;5072170;28;20064;-66
2022/09/22 06:09:41;;;;;;;9.15;5.28;;;9.00;99.90;;;;;;5070059;28;20090;-66
2022/09/22 06:12:07;;;;;;;9.63;4.95;;;9.50;99.90;;;;;;5046307;28;20090;-66
2022/09/22 06:14:34;;;;;;;8.43;5.45;;;9.80;99.90;;;;;;5069712;28;20067;-66
2022/09/22 06:17:00;;;;;;;7.57;5.20;;;9.70;99.90;;;;;;5070508;28;20145;-66
2022/09/22 06:19:27;;;;;;;14.10;5.78;;;9.50;99.90;;;;;;5071860;28;20043;-66
2022/09/22 06:21:53;;;;;;;8.70;5.18;;;9.80;99.90;;;;;;5069366;28;20056;-66
2022/09/22 06:24:19;;;;;;;9.43;4.97;;;9.80;99.90;;;;;;5061166;28;20406;-67
2022/09/22 06:26:44;;;;;;;8.73;4.70;;;9.60;99.90;;;;;;5053110;28;20099;-68
2022/09/22 06:29:10;;;;;;;9.95;5.30;;;10.00;99.90;;;;;;5071620;28;20044;-67
2022/09/22 06:31:36;;;;;;;7.78;4.63;;;10.20;99.90;;;;;;5061725;28;20598;-66
2022/09/22 06:34:02;;;;;;;10.23;4.82;;;10.50;99.90;;;;;;5049584;28;20171;-67
2022/09/22 06:36:30;;;;;;;8.75;4.90;;;10.70;99.90;;;;;;5050297;28;20565;-67
2022/09/22 06:38:59;;;;;;;9.98;4.65;;;10.30;99.90;;;;;;5050153;28;20056;-67
2022/09/22 06:41:31;;;;;;;8.35;4.95;;;11.00;99.90;;;;;;5050969;28;20495;-67
2022/09/22 06:43:57;;;;;;;11.23;5.22;;;10.70;99.90;;;;;;5060820;28;20067;-67
2022/09/22 06:46:28;;;;;;;9.02;4.95;;;10.80;99.90;;;;;;5069623;28;20447;-67
2022/09/22 06:48:56;;;;;;;12.73;5.20;;;11.10;99.90;;;;;;5070343;28;20133;-66
2022/09/22 06:51:33;;;;;;;9.38;5.43;;;11.30;99.90;;;;;;5063781;28;20048;-66
2022/09/22 06:54:02;;;;;;;12.63;5.15;;;11.10;99.90;;;;;;5060170;28;20040;-67
2022/09/22 06:56:30;;;;;;;9.68;5.20;;;11.40;99.90;;;;;;5070004;28;20032;-66
2022/09/22 06:58:56;;;;;;;10.30;5.20;;;11.20;99.90;;;;;;5070224;28;20040;-66
2022/09/22 07:01:23;;;;;;;11.02;5.70;;;12.10;99.90;;;;;;5070690;28;20402;-66
2022/09/22 07:03:49;;;;;;;10.50;5.55;;;12.20;99.90;;;;;;5071224;28;20094;-66
2022/09/22 07:06:18;;;;;;;10.05;5.45;;;12.30;99.90;;;;;;5069753;28;20048;-66
2022/09/22 07:08:46;;;;;;;12.10;5.95;;;12.50;99.90;;;;;;5052063;28;20044;-67
2022/09/22 07:11:13;;;;;;;11.43;5.70;;;12.40;99.90;;;;;;5049301;28;20514;-66
2022/09/22 07:13:41;;;;;;;9.85;5.20;;;12.00;99.90;;;;;;5033173;28;20395;-66
2022/09/22 07:16:16;;;;;;;9.10;5.18;;;12.40;99.90;;;;;;5053711;28;20456;-66
2022/09/22 07:18:44;;;;;;;12.27;5.78;;;12.50;99.90;;;;;;5069751;28;20462;-66
2022/09/22 07:21:16;;;;;;;6.75;5.53;;;13.20;99.90;;;;;;5064633;28;20033;-67
2022/09/22 07:23:43;;;;;;;9.65;5.15;;;13.40;99.90;;;;;;5042635;28;20036;-67
2022/09/22 07:26:14;;;;;;;12.10;6.30;;;12.60;99.90;;;;;;5069359;28;20049;-66
2022/09/22 07:28:41;;;;;;;12.63;5.97;;;13.60;99.90;;;;;;5069662;28;20041;-65
2022/09/22 07:31:14;;;;;;;10.27;5.07;;;13.40;99.90;;;;;;5069329;28;20409;-66
2022/09/22 07:33:42;;;;;;;8.85;5.55;;;13.50;99.90;;;;;;5069876;28;20123;-65
2022/09/22 07:36:17;;;;;;;11.82;5.22;;;13.70;99.90;;;;;;5070164;28;20037;-67
2022/09/22 07:38:48;;;;;;;15.43;5.30;;;13.40;99.90;;;;;;5049935;28;20045;-67
2022/09/22 07:41:40;;;;;;;8.68;5.55;;;13.50;99.90;;;;;;5049556;28;20501;-67
2022/09/22 07:46:51;;;;;;;7.60;5.13;;;14.20;99.90;;;;;;5050927;28;20048;-66
2022/09/22 07:49:18;;;;;;;11.55;5.40;;;14.20;99.90;;;;;;5049536;28;20048;-66
2022/09/22 07:51:44;;;;;;;9.52;5.45;;;14.20;99.90;;;;;;5061272;28;20071;-67
2022/09/22 07:54:10;;;;;;;10.13;4.82;;;15.40;99.90;;;;;;5069227;28;20079;-66
2022/09/22 07:56:41;;;;;;;11.10;4.97;;;14.70;99.90;;;;;;5069249;28;20040;-66
2022/09/22 07:59:09;;;;;;;11.98;5.00;;;15.20;99.90;;;;;;5063184;28;20049;-66
2022/09/22 08:01:36;;;;;;;9.35;4.85;;;16.60;99.90;;;;;;5068461;28;20037;-67
2022/09/22 08:04:03;;;;;;;21.63;6.82;;;16.40;99.90;;;;;;5067848;28;20053;-67
2022/09/22 08:06:30;;;;;;;15.38;4.47;;;17.50;99.90;;;;;;5068710;28;20513;-67
2022/09/22 08:08:56;;;;;;;9.18;5.45;;;17.20;99.90;;;;;;5069229;28;20098;-66
2022/09/22 08:11:24;;;;;;;8.93;4.30;;;17.80;99.90;;;;;;5068802;28;20059;-67
2022/09/22 08:14:01;;;;;;;8.38;4.15;;;17.70;99.90;;;;;;5070566;28;20056;-66
2022/09/22 08:16:30;;;;;;;9.68;3.80;;;18.60;99.90;;;;;;5069398;28;20557;-67
2022/09/22 08:18:58;;;;;;;7.72;3.90;;;18.40;99.90;;;;;;5071669;28;20090;-67
2022/09/22 08:21:25;;;;;;;8.32;4.30;;;18.80;99.90;;;;;;5068637;28;20075;-67
2022/09/22 08:23:52;;;;;;;13.30;4.50;;;18.50;99.90;;;;;;5054003;28;20055;-66
2022/09/22 08:26:21;;;;;;;7.93;3.50;;;18.90;99.90;;;;;;5053962;28;20040;-67
2022/09/22 08:28:54;;;;;;;7.65;3.97;;;19.50;99.90;;;;;;5070940;28;20056;-67
2022/09/22 08:31:21;;;;;;;8.02;3.85;;;18.90;99.90;;;;;;5072210;28;20044;-67
2022/09/22 08:33:48;;;;;;;8.23;4.53;;;19.40;99.90;;;;;;5071904;28;20045;-67
2022/09/22 08:36:15;;;;;;;9.52;3.97;;;19.20;99.90;;;;;;5070617;28;20398;-66
2022/09/22 08:38:41;;;;;;;4.95;3.40;;;19.80;99.90;;;;;;5053661;28;20033;-66
2022/09/22 08:41:28;;;;;;;9.50;4.10;;;19.70;99.90;;;;;;5070967;28;20144;-66
2022/09/22 08:44:09;;;;;;;11.10;4.00;;;19.80;99.90;;;;;;5073829;28;20048;-66
2022/09/22 08:46:39;;;;;;;9.32;4.38;;;19.80;99.90;;;;;;5053744;28;20064;-66
2022/09/22 08:52:31;;;;;;;12.60;4.00;;;19.60;99.90;;;;;;5056664;28;20045;-66
2022/09/22 08:54:59;;;;;;;17.55;4.10;;;19.60;99.90;;;;;;5063099;28;20188;-66
2022/09/22 08:58:00;;;;;;;13.00;4.47;;;20.00;99.90;;;;;;5067545;28;20051;-66
2022/09/22 09:00:34;;;;;;;10.07;4.53;;;20.10;99.90;;;;;;5053082;28;20049;-66
2022/09/22 09:03:43;;;;;;;14.32;3.83;;;20.20;99.90;;;;;;5053475;28;20047;-66
2022/09/22 09:06:22;;;;;;;6.10;3.83;;;20.20;99.90;;;;;;5055477;28;20071;-66
2022/09/22 09:09:11;;;;;;;7.32;3.63;;;20.20;99.90;;;;;;5071939;28;20433;-66
2022/09/22 09:12:22;;;;;;;7.88;4.00;;;20.30;99.90;;;;;;5072869;28;20059;-66
2022/09/22 09:15:00;;;;;;;9.90;4.30;;;20.50;99.90;;;;;;5071476;28;20494;-66
2022/09/22 09:17:31;;;;;;;10.25;3.70;;;20.40;99.90;;;;;;5073002;28;20107;-66
2022/09/22 09:20:01;;;;;;;17.63;5.38;;;20.40;99.90;;;;;;5071674;28;20115;-66
2022/09/22 09:22:39;;;;;;;24.40;5.30;;;20.30;99.90;;;;;;5069915;28;20052;-66
2022/09/22 09:25:04;;;;;;;29.05;4.03;;;20.20;99.90;;;;;;5072676;28;20048;-66
2022/09/22 09:27:40;;;;;;;18.13;3.53;;;20.10;99.90;;;;;;5071607;28;20052;-65
2022/09/22 09:30:16;;;;;;;12.93;3.45;;;20.00;99.90;;;;;;5072317;28;20032;-66
2022/09/22 09:33:00;;;;;;;10.70;3.13;;;19.90;44.60;;;;;;5072060;28;20052;-66
2022/09/22 09:35:50;;;;;;;10.98;3.33;;;19.90;99.90;;;;;;5072891;28;20064;-66
2022/09/22 09:38:20;;;;;;;17.90;3.42;;;19.90;99.90;;;;;;5056606;28;20036;-66
2022/09/22 09:40:53;;;;;;;7.40;3.40;;;20.00;99.90;;;;;;5052405;28;20123;-67
2022/09/22 09:43:23;;;;;;;14.23;3.88;;;20.00;99.90;;;;;;5034609;28;20059;-67
2022/09/22 09:46:38;;;;;;;8.05;3.35;;;20.00;50.90;;;;;;5050886;28;20119;-66
2022/09/22 09:49:10;;;;;;;18.00;3.97;;;20.10;99.90;;;;;;5068047;28;20494;-67
2022/09/22 09:51:39;;;;;;;6.65;3.38;;;20.10;42.00;;;;;;5070190;28;20044;-67
2022/09/22 09:54:06;;;;;;;7.90;3.70;;;20.70;1.00;;;;;;5070683;28;20048;-66
2022/09/22 09:56:35;;;;;;;8.32;3.83;;;20.30;99.90;;;;;;5071028;28;20497;-67
2022/09/22 10:02:00;;;;;;;7.05;3.50;;;20.30;99.90;;;;;;5051306;28;20186;-67
2022/09/22 10:04:27;;;;;;;8.52;3.85;;;20.20;99.90;;;;;;5069457;28;20499;-67
2022/09/22 10:06:54;;;;;;;8.30;4.30;;;20.30;99.90;;;;;;5067237;28;20045;-67
2022/09/22 10:09:28;;;;;;;7.55;4.05;;;20.20;1.00;;;;;;5050626;28;20062;-67
2022/09/22 10:12:01;;;;;;;10.80;4.05;;;20.20;1.00;;;;;;5062330;28;20051;-66
2022/09/22 10:14:34;;;;;;;9.15;4.00;;;20.30;99.90;;;;;;5069066;28;20033;-66
2022/09/22 10:16:59;;;;;;;8.65;4.43;;;20.40;99.90;;;;;;5070358;28;20028;-67
2022/09/22 10:19:33;;;;;;;11.05;4.53;;;20.90;99.90;;;;;;5070438;28;20043;-67
2022/09/22 10:22:34;;;;;;;10.20;4.10;;;20.40;29.90;;;;;;5066040;28;20166;-66
2022/09/22 10:25:01;;;;;;;13.15;5.25;;;20.50;1.00;;;;;;5008941;28;20079;-67
2022/09/22 10:27:29;;;;;;;7.70;4.50;;;20.50;1.00;;;;;;5050271;28;20086;-68
2022/09/22 10:30:20;;;;;;;8.27;4.72;;;20.60;1.00;;;;;;5057576;28;20086;-67
2022/09/22 10:33:02;;;;;;;7.63;4.97;;;20.60;99.90;;;;;;5061527;28;20110;-67
2022/09/22 10:35:29;;;;;;;10.95;4.70;;;20.60;99.90;;;;;;5070222;28;20048;-67
2022/09/22 10:38:11;;;;;;;9.60;4.63;;;20.60;99.90;;;;;;5069709;28;20037;-67
2022/09/22 10:40:40;;;;;;;11.90;5.78;;;20.50;99.90;;;;;;5069946;28;20079;-67
2022/09/22 10:43:26;;;;;;;9.70;4.60;;;20.50;99.90;;;;;;5071526;28;20044;-67
2022/09/22 10:46:17;;;;;;;11.73;4.53;;;20.40;99.90;;;;;;5057803;28;20429;-68
2022/09/22 10:48:48;;;;;;;9.50;4.25;;;20.40;99.90;;;;;;5069908;28;20033;-67
2022/09/22 10:51:56;;;;;;;9.65;4.47;;;20.40;99.90;;;;;;5071414;28;20067;-67
2022/09/22 10:54:46;;;;;;;8.23;4.40;;;20.50;99.90;;;;;;5071189;28;20047;-66
2022/09/22 10:57:26;;;;;;;6.68;3.88;;;20.50;99.90;;;;;;5070182;28;20054;-66
2022/09/22 11:00:12;;;;;;;7.72;4.07;;;20.40;85.90;;;;;;5051079;28;20033;-66
2022/09/22 11:02:56;;;;;;;14.93;5.25;;;20.50;71.80;;;;;;5049862;28;20580;-66
2022/09/22 11:14:37;;;;;;;9.80;4.22;;;20.30;30.40;;;;;;5064796;28;20046;-66
2022/09/22 11:17:21;;;;;;;9.23;5.70;;;20.20;24.40;;;;;;5067339;28;20665;-65
2022/09/22 11:20:12;;;;;;;11.55;5.05;;;20.10;12.80;;;;;;5052809;28;20044;-66
2022/09/22 11:22:52;;;;;;;8.60;5.05;;;20.00;14.70;;;;;;5070459;28;20064;-65
2022/09/22 11:25:23;;;;;;;8.25;3.90;;;20.00;14.50;;;;;;5070830;28;20044;-66
2022/09/22 11:28:07;;;;;;;12.90;5.00;;;20.00;15.90;;;;;;5070009;28;20049;-66
2022/09/22 11:30:49;;;;;;;8.68;4.10;;;19.90;1.00;;;;;;5069030;28;20033;-65
2022/09/22 11:33:48;;;;;;;8.23;4.07;;;20.00;6.30;;;;;;5063989;28;20037;-66
2022/09/22 11:36:24;;;;;;;9.90;4.47;;;20.10;12.00;;;;;;5052989;28;20036;-66
2022/09/22 11:39:06;;;;;;;;;;;20.10;10.10;;;;;;5050557;28;20052;-66
2022/09/22 11:42:00;;;;;;;18.40;5.85;;;20.10;1.00;;;;;;5050372;28;19921;-65
2022/09/22 11:44:35;;;;;;;17.88;7.30;;;20.00;1.00;;;;;;5049431;28;20589;-66
2022/09/22 11:47:04;;;;;;;10.23;4.47;;;20.00;1.00;;;;;;5062687;28;20501;-65
2022/09/22 11:49:35;;;;;;;9.77;4.20;;;20.10;1.00;;;;;;5054946;28;20047;-65
2022/09/22 11:52:10;;;;;;;18.85;5.22;;;20.10;1.00;;;;;;5049323;28;20037;-65
2022/09/22 11:54:49;;;;;;;25.33;5.05;;;20.10;1.00;;;;;;5052995;28;20033;-65
2022/09/22 11:57:18;;;;;;;17.25;3.95;;;20.10;1.00;;;;;;5054577;28;20494;-64
2022/09/22 11:59:57;;;;;;;9.40;3.80;;;20.00;1.00;;;;;;5066954;28;20052;-64
2022/09/22 12:02:45;;;;;;;11.30;4.03;;;19.90;1.00;;;;;;5073200;28;20033;-65
2022/09/22 12:05:25;;;;;;;8.43;3.40;;;20.00;1.00;;;;;;5060855;28;20040;-66
2022/09/22 12:07:58;;;;;;;7.43;3.90;;;20.00;1.00;;;;;;5066164;28;20711;-65
2022/09/22 12:10:36;;;;;;;9.32;4.10;;;20.00;1.00;;;;;;5072518;28;20060;-66
2022/09/22 12:13:04;;;;;;;9.82;4.15;;;20.00;1.00;;;;;;5062346;28;20044;-64
2022/09/22 12:16:05;;;;;;;14.75;5.07;;;20.00;9.00;;;;;;5053865;28;20033;-66
2022/09/22 12:18:57;;;;;;;11.38;4.50;;;20.10;15.00;;;;;;5033035;28;20049;-65
2022/09/22 12:22:08;;;;;;;7.55;4.38;;;20.20;16.00;;;;;;5053144;28;20526;-66
2022/09/22 12:24:34;;;;;;;12.30;4.93;;;20.00;1.00;;;;;;5072862;28;20135;-65
2022/09/22 12:27:28;;;;;;;7.60;3.90;;;19.90;1.00;;;;;;5071761;28;20537;-65
2022/09/22 12:30:06;;;;;;;9.75;4.20;;;19.90;1.00;;;;;;5072665;28;20502;-67
2022/09/22 12:32:37;;;;;;;13.02;4.85;;;19.90;1.00;;;;;;5070198;28;20076;-64
2022/09/22 12:35:04;;;;;;;10.73;4.38;;;20.00;1.00;;;;;;5070893;28;20035;-65
2022/09/22 12:37:31;;;;;;;8.25;4.18;;;19.80;1.00;;;;;;5055598;28;20052;-64
2022/09/22 12:40:17;;;;;;;9.30;4.35;;;19.60;1.00;;;;;;5053526;28;20076;-65
2022/09/22 12:42:48;;;;;;;14.35;4.22;;;19.40;1.00;;;;;;5053735;28;20116;-64
2022/09/22 12:45:28;;;;;;;7.88;4.25;;;19.60;1.00;;;;;;5035018;28;20045;-65
2022/09/22 12:47:57;;;;;;;11.50;3.97;;;19.40;1.00;;;;;;5061643;28;20043;-64
2022/09/22 12:50:22;;;;;;;9.93;4.00;;;19.40;1.00;;;;;;5053535;28;20045;-64
2022/09/22 12:52:49;;;;;;;6.78;3.47;;;19.50;1.00;;;;;;5053653;28;20041;-64
2022/09/22 12:55:27;;;;;;;8.95;3.95;;;19.50;1.00;;;;;;5053321;28;20512;-63
2022/09/22 12:57:57;;;;;;;8.32;4.13;;;19.50;1.00;;;;;;5071689;28;20032;-64
2022/09/22 13:00:31;;;;;;;10.00;3.75;;;19.50;1.00;;;;;;5071857;28;20041;-64
2022/09/22 13:02:57;;;;;;;9.18;3.80;;;19.40;1.00;;;;;;5060727;28;20072;-64
2022/09/22 13:05:23;;;;;;;6.95;3.30;;;19.50;1.00;;;;;;5052919;28;20450;-64
2022/09/22 13:07:48;;;;;;;8.73;3.67;;;19.50;1.00;;;;;;5068817;28;20041;-64
2022/09/22 13:10:23;;;;;;;9.13;3.88;;;19.50;1.00;;;;;;5051472;28;20403;-64
2022/09/22 13:13:04;;;;;;;5.78;3.13;;;19.50;1.00;;;;;;5064637;28;20041;-64
2022/09/22 13:15:33;;;;;;;6.03;2.67;;;19.30;1.00;;;;;;5065398;28;20040;-64
2022/09/22 13:18:00;;;;;;;6.85;3.25;;;19.10;1.00;;;;;;5058873;28;20040;-64
2022/09/22 13:20:31;;;;;;;7.63;3.28;;;19.00;1.00;;;;;;5071918;28;20056;-64
2022/09/22 13:23:10;;;;;;;5.03;3.00;;;19.00;1.00;;;;;;5060505;28;20097;-64
2022/09/22 13:25:37;;;;;;;7.28;3.20;;;19.10;1.00;;;;;;5052827;28;20666;-64
2022/09/22 13:28:09;;;;;;;8.93;2.83;;;19.00;1.00;;;;;;5070665;28;20036;-64
2022/09/22 13:30:36;;;;;;;9.30;3.20;;;19.00;1.00;;;;;;5072362;28;20570;-64
2022/09/22 13:33:02;;;;;;;8.00;3.13;;;19.00;1.00;;;;;;5071082;28;20119;-65